sensor_id;sensor_type;location;lat;lon;timestamp;P1;durP1;ratioP1;P2;durP2;ratioP2
11386;SDS011;5748;53.102;8.456;2023-11-19T00:01:10;2.17;;;1.97;;
11386;SDS011;5748;53.102;8.456;2023-11-19T00:03:37;2.47;;;2.27;;
11386;SDS011;5748;53.102;8.456;2023-11-19T00:06:06;2.40;;;2.20;;
11386;SDS011;5748;53.102;8.456;2023-11-19T00:08:34;2.57;;;2.37;;
11386;SDS011;5748;53.102;8.456;2023-11-19T00:11:01;2.00;;;1.90;;
11386;SDS011;5748;53.102;8.456;2023-11-19T00:13:29;2.60;;;2.40;;
11386;SDS011;5748;53.102;8.456;2023-11-19T00:15:56;2.60;;;2.40;;
11386;SDS011;5748;53.102;8.456;2023-11-19T00:18:23;2.60;;;2.40;;
11386;SDS011;5748;53.102;8.456;2023-11-19T00:20:50;2.60;;;2.40;;
11386;SDS011;5748;53.102;8.456;2023-11-19T00:23:18;2.90;;;2.70;;
11386;SDS011;5748;53.102;8.456;2023-11-19T00:25:45;2.50;;;2.30;;
11386;SDS011;5748;53.102;8.456;2023-11-19T00:28:12;3.20;;;3.00;;
11386;SDS011;5748;53.102;8.456;2023-11-19T00:30:39;3.03;;;2.83;;
11386;SDS011;5748;53.102;8.456;2023-11-19T00:33:06;3.30;;;3.00;;
11386;SDS011;5748;53.102;8.456;2023-11-19T00:35:33;2.77;;;2.57;;
11386;SDS011;5748;53.102;8.456;2023-11-19T00:38:00;3.13;;;2.93;;
11386;SDS011;5748;53.102;8.456;2023-11-19T00:40:30;2.90;;;2.70;;
11386;SDS011;5748;53.102;8.456;2023-11-19T00:42:57;2.70;;;2.50;;
11386;SDS011;5748;53.102;8.456;2023-11-19T00:45:24;2.63;;;2.43;;
11386;SDS011;5748;53.102;8.456;2023-11-19T00:47:52;2.60;;;2.40;;
11386;SDS011;5748;53.102;8.456;2023-11-19T00:50:19;2.67;;;2.47;;
11386;SDS011;5748;53.102;8.456;2023-11-19T00:52:46;2.70;;;2.50;;
11386;SDS011;5748;53.102;8.456;2023-11-19T00:55:13;3.90;;;3.60;;
11386;SDS011;5748;53.102;8.456;2023-11-19T00:57:41;3.50;;;3.20;;
11386;SDS011;5748;53.102;8.456;2023-11-19T01:00:08;3.37;;;3.07;;
11386;SDS011;5748;53.102;8.456;2023-11-19T01:02:43;3.73;;;3.43;;
11386;SDS011;5748;53.102;8.456;2023-11-19T01:05:10;3.23;;;3.03;;
11386;SDS011;5748;53.102;8.456;2023-11-19T01:07:39;2.97;;;2.77;;
11386;SDS011;5748;53.102;8.456;2023-11-19T01:10:07;3.00;;;2.80;;
11386;SDS011;5748;53.102;8.456;2023-11-19T01:12:35;3.60;;;3.30;;
11386;SDS011;5748;53.102;8.456;2023-11-19T01:15:04;3.57;;;3.27;;
11386;SDS011;5748;53.102;8.456;2023-11-19T01:17:32;2.57;;;2.37;;
11386;SDS011;5748;53.102;8.456;2023-11-19T01:19:59;2.23;;;2.10;;
11386;SDS011;5748;53.102;8.456;2023-11-19T01:22:26;2.80;;;2.60;;
11386;SDS011;5748;53.102;8.456;2023-11-19T01:24:53;2.77;;;2.57;;
11386;SDS011;5748;53.102;8.456;2023-11-19T01:27:20;2.70;;;2.50;;
11386;SDS011;5748;53.102;8.456;2023-11-19T01:29:47;2.37;;;2.20;;
11386;SDS011;5748;53.102;8.456;2023-11-19T01:32:15;2.00;;;1.90;;
11386;SDS011;5748;53.102;8.456;2023-11-19T01:34:42;2.17;;;2.07;;
11386;SDS011;5748;53.102;8.456;2023-11-19T01:37:09;2.80;;;2.60;;
11386;SDS011;5748;53.102;8.456;2023-11-19T01:39:37;2.87;;;2.67;;
11386;SDS011;5748;53.102;8.456;2023-11-19T01:42:04;2.50;;;2.30;;
11386;SDS011;5748;53.102;8.456;2023-11-19T01:44:32;2.80;;;2.60;;
11386;SDS011;5748;53.102;8.456;2023-11-19T01:46:59;3.00;;;2.80;;
11386;SDS011;5748;53.102;8.456;2023-11-19T01:49:28;2.73;;;2.53;;
11386;SDS011;5748;53.102;8.456;2023-11-19T01:51:55;2.43;;;2.23;;
11386;SDS011;5748;53.102;8.456;2023-11-19T01:54:24;2.87;;;2.67;;
11386;SDS011;5748;53.102;8.456;2023-11-19T01:56:51;2.80;;;2.60;;
11386;SDS011;5748;53.102;8.456;2023-11-19T01:59:21;3.00;;;2.80;;
11386;SDS011;5748;53.102;8.456;2023-11-19T02:01:51;3.37;;;3.10;;
11386;SDS011;5748;53.102;8.456;2023-11-19T02:04:19;3.20;;;3.00;;
11386;SDS011;5748;53.102;8.456;2023-11-19T02:06:48;2.90;;;2.70;;
11386;SDS011;5748;53.102;8.456;2023-11-19T02:09:18;2.47;;;2.33;;
11386;SDS011;5748;53.102;8.456;2023-11-19T02:11:46;3.30;;;3.10;;
11386;SDS011;5748;53.102;8.456;2023-11-19T02:14:16;2.87;;;2.67;;
11386;SDS011;5748;53.102;8.456;2023-11-19T02:16:43;2.90;;;2.70;;
11386;SDS011;5748;53.102;8.456;2023-11-19T02:19:10;3.87;;;3.57;;
11386;SDS011;5748;53.102;8.456;2023-11-19T02:21:37;3.40;;;3.20;;
11386;SDS011;5748;53.102;8.456;2023-11-19T02:24:06;3.47;;;3.20;;
11386;SDS011;5748;53.102;8.456;2023-11-19T02:26:37;3.50;;;3.20;;
11386;SDS011;5748;53.102;8.456;2023-11-19T02:29:13;3.70;;;3.40;;
11386;SDS011;5748;53.102;8.456;2023-11-19T02:31:39;3.47;;;3.17;;
11386;SDS011;5748;53.102;8.456;2023-11-19T02:34:06;3.83;;;3.53;;
11386;SDS011;5748;53.102;8.456;2023-11-19T02:36:33;3.53;;;3.23;;
11386;SDS011;5748;53.102;8.456;2023-11-19T02:39:00;3.60;;;3.30;;
11386;SDS011;5748;53.102;8.456;2023-11-19T02:41:28;3.80;;;3.50;;
11386;SDS011;5748;53.102;8.456;2023-11-19T02:43:55;3.90;;;3.60;;
11386;SDS011;5748;53.102;8.456;2023-11-19T02:46:24;4.07;;;3.77;;
11386;SDS011;5748;53.102;8.456;2023-11-19T02:48:51;4.00;;;3.70;;
11386;SDS011;5748;53.102;8.456;2023-11-19T02:51:18;3.60;;;3.30;;
11386;SDS011;5748;53.102;8.456;2023-11-19T02:53:45;3.80;;;3.50;;
11386;SDS011;5748;53.102;8.456;2023-11-19T02:56:13;4.00;;;3.70;;
11386;SDS011;5748;53.102;8.456;2023-11-19T02:58:50;4.70;;;4.30;;
11386;SDS011;5748;53.102;8.456;2023-11-19T03:01:21;4.10;;;3.80;;
11386;SDS011;5748;53.102;8.456;2023-11-19T03:03:54;4.00;;;3.70;;
11386;SDS011;5748;53.102;8.456;2023-11-19T03:06:22;3.70;;;3.40;;
11386;SDS011;5748;53.102;8.456;2023-11-19T03:08:49;3.20;;;3.00;;
11386;SDS011;5748;53.102;8.456;2023-11-19T03:11:16;4.30;;;4.00;;
11386;SDS011;5748;53.102;8.456;2023-11-19T03:13:43;3.90;;;3.60;;
11386;SDS011;5748;53.102;8.456;2023-11-19T03:16:09;4.13;;;3.83;;
11386;SDS011;5748;53.102;8.456;2023-11-19T03:18:38;4.10;;;3.70;;
11386;SDS011;5748;53.102;8.456;2023-11-19T03:21:05;4.73;;;4.20;;
11386;SDS011;5748;53.102;8.456;2023-11-19T03:23:33;3.70;;;3.40;;
11386;SDS011;5748;53.102;8.456;2023-11-19T03:26:00;3.77;;;3.37;;
11386;SDS011;5748;53.102;8.456;2023-11-19T03:28:28;3.80;;;3.50;;
11386;SDS011;5748;53.102;8.456;2023-11-19T03:30:56;4.00;;;3.60;;
11386;SDS011;5748;53.102;8.456;2023-11-19T03:33:22;3.63;;;3.33;;
11386;SDS011;5748;53.102;8.456;2023-11-19T03:35:54;4.20;;;3.80;;
11386;SDS011;5748;53.102;8.456;2023-11-19T03:38:21;4.50;;;4.10;;
11386;SDS011;5748;53.102;8.456;2023-11-19T03:40:49;4.10;;;3.80;;
11386;SDS011;5748;53.102;8.456;2023-11-19T03:43:16;3.20;;;2.90;;
11386;SDS011;5748;53.102;8.456;2023-11-19T03:45:44;3.70;;;3.30;;
11386;SDS011;5748;53.102;8.456;2023-11-19T03:48:11;3.17;;;2.87;;
11386;SDS011;5748;53.102;8.456;2023-11-19T03:50:38;3.00;;;2.70;;
11386;SDS011;5748;53.102;8.456;2023-11-19T03:53:06;2.70;;;2.40;;
11386;SDS011;5748;53.102;8.456;2023-11-19T03:55:33;3.13;;;2.83;;
11386;SDS011;5748;53.102;8.456;2023-11-19T03:58:00;3.07;;;2.77;;
11386;SDS011;5748;53.102;8.456;2023-11-19T04:00:27;3.60;;;3.20;;
11386;SDS011;5748;53.102;8.456;2023-11-19T04:02:54;3.17;;;2.60;;
11386;SDS011;5748;53.102;8.456;2023-11-19T04:05:21;3.60;;;3.10;;
11386;SDS011;5748;53.102;8.456;2023-11-19T04:07:47;3.77;;;2.90;;
11386;SDS011;5748;53.102;8.456;2023-11-19T04:10:15;4.27;;;3.30;;
11386;SDS011;5748;53.102;8.456;2023-11-19T04:12:42;3.00;;;2.80;;
11386;SDS011;5748;53.102;8.456;2023-11-19T04:15:10;3.47;;;3.07;;
11386;SDS011;5748;53.102;8.456;2023-11-19T04:17:38;3.50;;;2.90;;
11386;SDS011;5748;53.102;8.456;2023-11-19T04:20:05;3.77;;;3.23;;
11386;SDS011;5748;53.102;8.456;2023-11-19T04:22:36;3.20;;;2.90;;
11386;SDS011;5748;53.102;8.456;2023-11-19T04:25:03;3.30;;;3.00;;
11386;SDS011;5748;53.102;8.456;2023-11-19T04:27:33;3.40;;;3.10;;
11386;SDS011;5748;53.102;8.456;2023-11-19T04:30:00;4.10;;;3.10;;
11386;SDS011;5748;53.102;8.456;2023-11-19T04:32:28;3.63;;;2.70;;
11386;SDS011;5748;53.102;8.456;2023-11-19T04:34:55;3.43;;;3.00;;
11386;SDS011;5748;53.102;8.456;2023-11-19T04:37:22;3.77;;;2.97;;
11386;SDS011;5748;53.102;8.456;2023-11-19T04:39:49;2.93;;;2.67;;
11386;SDS011;5748;53.102;8.456;2023-11-19T04:42:16;3.37;;;2.70;;
11386;SDS011;5748;53.102;8.456;2023-11-19T04:44:44;3.93;;;2.47;;
11386;SDS011;5748;53.102;8.456;2023-11-19T04:47:11;2.73;;;2.50;;
11386;SDS011;5748;53.102;8.456;2023-11-19T04:49:39;3.20;;;2.57;;
11386;SDS011;5748;53.102;8.456;2023-11-19T04:52:08;2.93;;;2.50;;
11386;SDS011;5748;53.102;8.456;2023-11-19T04:54:40;4.47;;;3.10;;
11386;SDS011;5748;53.102;8.456;2023-11-19T04:57:08;4.10;;;2.67;;
11386;SDS011;5748;53.102;8.456;2023-11-19T04:59:36;3.17;;;2.50;;
11386;SDS011;5748;53.102;8.456;2023-11-19T05:02:04;3.90;;;2.57;;
11386;SDS011;5748;53.102;8.456;2023-11-19T05:04:31;4.20;;;3.10;;
11386;SDS011;5748;53.102;8.456;2023-11-19T05:06:58;3.27;;;2.50;;
11386;SDS011;5748;53.102;8.456;2023-11-19T05:09:25;5.03;;;2.90;;
11386;SDS011;5748;53.102;8.456;2023-11-19T05:11:52;3.83;;;2.30;;
11386;SDS011;5748;53.102;8.456;2023-11-19T05:14:19;2.80;;;2.23;;
11386;SDS011;5748;53.102;8.456;2023-11-19T05:16:46;4.60;;;2.60;;
11386;SDS011;5748;53.102;8.456;2023-11-19T05:19:15;2.97;;;2.13;;
11386;SDS011;5748;53.102;8.456;2023-11-19T05:21:42;3.30;;;2.20;;
11386;SDS011;5748;53.102;8.456;2023-11-19T05:24:09;4.17;;;2.10;;
11386;SDS011;5748;53.102;8.456;2023-11-19T05:26:36;2.50;;;1.90;;
11386;SDS011;5748;53.102;8.456;2023-11-19T05:29:04;3.57;;;2.00;;
11386;SDS011;5748;53.102;8.456;2023-11-19T05:31:31;3.57;;;2.00;;
11386;SDS011;5748;53.102;8.456;2023-11-19T05:33:58;3.77;;;2.07;;
11386;SDS011;5748;53.102;8.456;2023-11-19T05:36:26;4.80;;;2.53;;
11386;SDS011;5748;53.102;8.456;2023-11-19T05:38:54;3.57;;;2.10;;
11386;SDS011;5748;53.102;8.456;2023-11-19T05:41:20;4.33;;;2.27;;
11386;SDS011;5748;53.102;8.456;2023-11-19T05:43:47;3.80;;;2.17;;
11386;SDS011;5748;53.102;8.456;2023-11-19T05:46:14;4.10;;;2.00;;
11386;SDS011;5748;53.102;8.456;2023-11-19T05:48:41;2.63;;;1.70;;
11386;SDS011;5748;53.102;8.456;2023-11-19T05:51:10;5.67;;;2.40;;
11386;SDS011;5748;53.102;8.456;2023-11-19T05:53:39;4.37;;;2.30;;
11386;SDS011;5748;53.102;8.456;2023-11-19T05:56:06;4.63;;;2.33;;
11386;SDS011;5748;53.102;8.456;2023-11-19T05:58:34;4.03;;;2.07;;
11386;SDS011;5748;53.102;8.456;2023-11-19T06:01:02;2.77;;;2.00;;
11386;SDS011;5748;53.102;8.456;2023-11-19T06:03:32;2.33;;;2.00;;
11386;SDS011;5748;53.102;8.456;2023-11-19T06:05:59;4.30;;;2.10;;
11386;SDS011;5748;53.102;8.456;2023-11-19T06:08:26;4.60;;;2.40;;
11386;SDS011;5748;53.102;8.456;2023-11-19T06:10:54;2.87;;;1.80;;
11386;SDS011;5748;53.102;8.456;2023-11-19T06:13:21;5.03;;;2.30;;
11386;SDS011;5748;53.102;8.456;2023-11-19T06:15:48;2.53;;;1.60;;
11386;SDS011;5748;53.102;8.456;2023-11-19T06:18:16;2.50;;;1.40;;
11386;SDS011;5748;53.102;8.456;2023-11-19T06:20:44;5.77;;;2.30;;
11386;SDS011;5748;53.102;8.456;2023-11-19T06:23:11;4.03;;;2.00;;
11386;SDS011;5748;53.102;8.456;2023-11-19T06:25:39;4.27;;;2.33;;
11386;SDS011;5748;53.102;8.456;2023-11-19T06:28:07;3.67;;;1.83;;
11386;SDS011;5748;53.102;8.456;2023-11-19T06:30:34;3.43;;;1.73;;
11386;SDS011;5748;53.102;8.456;2023-11-19T06:33:01;3.07;;;1.50;;
11386;SDS011;5748;53.102;8.456;2023-11-19T06:35:29;5.33;;;2.40;;
11386;SDS011;5748;53.102;8.456;2023-11-19T06:38:01;4.73;;;2.33;;
11386;SDS011;5748;53.102;8.456;2023-11-19T06:40:29;4.77;;;1.93;;
11386;SDS011;5748;53.102;8.456;2023-11-19T06:42:56;2.73;;;1.50;;
11386;SDS011;5748;53.102;8.456;2023-11-19T06:45:25;5.33;;;2.10;;
11386;SDS011;5748;53.102;8.456;2023-11-19T06:47:52;4.00;;;1.67;;
11386;SDS011;5748;53.102;8.456;2023-11-19T06:50:19;5.00;;;2.00;;
11386;SDS011;5748;53.102;8.456;2023-11-19T06:52:46;4.87;;;2.10;;
11386;SDS011;5748;53.102;8.456;2023-11-19T06:55:13;3.97;;;2.07;;
11386;SDS011;5748;53.102;8.456;2023-11-19T06:57:40;4.23;;;1.90;;
11386;SDS011;5748;53.102;8.456;2023-11-19T07:00:08;5.43;;;2.40;;
11386;SDS011;5748;53.102;8.456;2023-11-19T07:02:38;6.63;;;2.33;;
11386;SDS011;5748;53.102;8.456;2023-11-19T07:05:05;6.10;;;2.33;;
11386;SDS011;5748;53.102;8.456;2023-11-19T07:07:33;5.03;;;1.63;;
11386;SDS011;5748;53.102;8.456;2023-11-19T07:10:00;4.63;;;2.37;;
11386;SDS011;5748;53.102;8.456;2023-11-19T07:12:29;4.53;;;1.70;;
11386;SDS011;5748;53.102;8.456;2023-11-19T07:14:56;4.73;;;2.00;;
11386;SDS011;5748;53.102;8.456;2023-11-19T07:17:23;4.97;;;1.80;;
11386;SDS011;5748;53.102;8.456;2023-11-19T07:19:51;5.30;;;2.30;;
11386;SDS011;5748;53.102;8.456;2023-11-19T07:22:19;3.90;;;1.60;;
11386;SDS011;5748;53.102;8.456;2023-11-19T07:24:46;3.47;;;1.90;;
11386;SDS011;5748;53.102;8.456;2023-11-19T07:27:13;5.17;;;2.03;;
11386;SDS011;5748;53.102;8.456;2023-11-19T07:29:40;4.57;;;1.73;;
11386;SDS011;5748;53.102;8.456;2023-11-19T07:32:09;6.03;;;2.40;;
11386;SDS011;5748;53.102;8.456;2023-11-19T07:34:38;4.73;;;1.80;;
11386;SDS011;5748;53.102;8.456;2023-11-19T07:37:07;3.00;;;1.60;;
11386;SDS011;5748;53.102;8.456;2023-11-19T07:39:34;6.13;;;2.33;;
11386;SDS011;5748;53.102;8.456;2023-11-19T07:45:16;5.80;;;1.80;;
11386;SDS011;5748;53.102;8.456;2023-11-19T07:47:56;5.23;;;2.10;;
11386;SDS011;5748;53.102;8.456;2023-11-19T07:50:58;4.77;;;1.87;;
11386;SDS011;5748;53.102;8.456;2023-11-19T07:53:26;4.60;;;1.70;;
11386;SDS011;5748;53.102;8.456;2023-11-19T07:55:53;6.53;;;2.27;;
11386;SDS011;5748;53.102;8.456;2023-11-19T07:58:20;5.97;;;2.10;;
11386;SDS011;5748;53.102;8.456;2023-11-19T08:00:47;5.20;;;2.07;;
11386;SDS011;5748;53.102;8.456;2023-11-19T08:03:14;3.40;;;1.83;;
11386;SDS011;5748;53.102;8.456;2023-11-19T08:05:41;6.47;;;2.07;;
11386;SDS011;5748;53.102;8.456;2023-11-19T08:08:07;4.80;;;1.80;;
11386;SDS011;5748;53.102;8.456;2023-11-19T08:10:36;3.70;;;1.73;;
11386;SDS011;5748;53.102;8.456;2023-11-19T08:13:03;3.80;;;1.90;;
11386;SDS011;5748;53.102;8.456;2023-11-19T08:15:30;4.90;;;2.13;;
11386;SDS011;5748;53.102;8.456;2023-11-19T08:17:57;6.60;;;2.13;;
11386;SDS011;5748;53.102;8.456;2023-11-19T08:20:23;4.80;;;1.80;;
11386;SDS011;5748;53.102;8.456;2023-11-19T08:22:50;5.47;;;2.23;;
11386;SDS011;5748;53.102;8.456;2023-11-19T08:25:18;6.27;;;2.37;;
11386;SDS011;5748;53.102;8.456;2023-11-19T08:27:46;5.87;;;2.40;;
11386;SDS011;5748;53.102;8.456;2023-11-19T08:30:13;6.27;;;2.40;;
11386;SDS011;5748;53.102;8.456;2023-11-19T08:32:40;4.63;;;1.80;;
11386;SDS011;5748;53.102;8.456;2023-11-19T08:35:07;4.47;;;1.80;;
11386;SDS011;5748;53.102;8.456;2023-11-19T08:37:35;4.63;;;2.03;;
11386;SDS011;5748;53.102;8.456;2023-11-19T08:40:04;6.90;;;2.17;;
11386;SDS011;5748;53.102;8.456;2023-11-19T08:42:32;4.37;;;2.20;;
11386;SDS011;5748;53.102;8.456;2023-11-19T08:45:00;4.60;;;1.87;;
11386;SDS011;5748;53.102;8.456;2023-11-19T08:47:27;5.57;;;1.73;;
11386;SDS011;5748;53.102;8.456;2023-11-19T08:49:54;8.60;;;2.60;;
11386;SDS011;5748;53.102;8.456;2023-11-19T08:52:21;7.67;;;2.63;;
11386;SDS011;5748;53.102;8.456;2023-11-19T08:54:48;6.77;;;2.50;;
11386;SDS011;5748;53.102;8.456;2023-11-19T08:57:15;9.47;;;3.00;;
11386;SDS011;5748;53.102;8.456;2023-11-19T08:59:41;7.17;;;2.50;;
11386;SDS011;5748;53.102;8.456;2023-11-19T09:02:12;5.53;;;1.90;;
11386;SDS011;5748;53.102;8.456;2023-11-19T09:04:39;6.90;;;2.43;;
11386;SDS011;5748;53.102;8.456;2023-11-19T09:07:05;5.87;;;2.00;;
11386;SDS011;5748;53.102;8.456;2023-11-19T09:09:34;6.77;;;2.70;;
11386;SDS011;5748;53.102;8.456;2023-11-19T09:12:01;5.53;;;2.23;;
11386;SDS011;5748;53.102;8.456;2023-11-19T09:14:29;4.47;;;1.87;;
11386;SDS011;5748;53.102;8.456;2023-11-19T09:16:56;5.20;;;1.87;;
11386;SDS011;5748;53.102;8.456;2023-11-19T09:19:24;2.97;;;1.60;;
11386;SDS011;5748;53.102;8.456;2023-11-19T09:21:51;6.13;;;2.20;;
11386;SDS011;5748;53.102;8.456;2023-11-19T09:24:18;5.90;;;2.37;;
11386;SDS011;5748;53.102;8.456;2023-11-19T09:26:45;4.27;;;2.17;;
11386;SDS011;5748;53.102;8.456;2023-11-19T09:29:12;4.77;;;1.87;;
11386;SDS011;5748;53.102;8.456;2023-11-19T09:31:39;5.13;;;2.00;;
11386;SDS011;5748;53.102;8.456;2023-11-19T09:34:06;3.20;;;1.90;;
11386;SDS011;5748;53.102;8.456;2023-11-19T09:36:35;5.13;;;1.90;;
11386;SDS011;5748;53.102;8.456;2023-11-19T09:39:02;5.57;;;2.07;;
11386;SDS011;5748;53.102;8.456;2023-11-19T09:41:30;5.37;;;1.90;;
11386;SDS011;5748;53.102;8.456;2023-11-19T09:43:59;4.83;;;1.77;;
11386;SDS011;5748;53.102;8.456;2023-11-19T09:46:26;6.27;;;2.20;;
11386;SDS011;5748;53.102;8.456;2023-11-19T09:48:56;9.13;;;2.80;;
11386;SDS011;5748;53.102;8.456;2023-11-19T09:51:24;7.13;;;2.43;;
11386;SDS011;5748;53.102;8.456;2023-11-19T09:53:53;6.77;;;2.57;;
11386;SDS011;5748;53.102;8.456;2023-11-19T09:56:20;4.27;;;2.00;;
11386;SDS011;5748;53.102;8.456;2023-11-19T09:58:47;5.60;;;2.20;;
11386;SDS011;5748;53.102;8.456;2023-11-19T10:01:14;5.10;;;2.00;;
11386;SDS011;5748;53.102;8.456;2023-11-19T10:03:41;5.87;;;2.40;;
11386;SDS011;5748;53.102;8.456;2023-11-19T10:06:10;5.60;;;2.23;;
11386;SDS011;5748;53.102;8.456;2023-11-19T10:08:37;6.10;;;2.30;;
11386;SDS011;5748;53.102;8.456;2023-11-19T10:11:06;5.50;;;2.17;;
11386;SDS011;5748;53.102;8.456;2023-11-19T10:13:35;5.60;;;2.20;;
11386;SDS011;5748;53.102;8.456;2023-11-19T10:16:04;5.57;;;2.40;;
11386;SDS011;5748;53.102;8.456;2023-11-19T10:18:36;4.87;;;2.03;;
11386;SDS011;5748;53.102;8.456;2023-11-19T10:21:04;5.23;;;2.10;;
11386;SDS011;5748;53.102;8.456;2023-11-19T10:23:46;6.17;;;2.00;;
11386;SDS011;5748;53.102;8.456;2023-11-19T10:26:17;5.63;;;2.13;;
11386;SDS011;5748;53.102;8.456;2023-11-19T10:28:45;5.20;;;1.97;;
11386;SDS011;5748;53.102;8.456;2023-11-19T10:31:13;4.87;;;2.03;;
11386;SDS011;5748;53.102;8.456;2023-11-19T10:33:40;5.30;;;2.00;;
11386;SDS011;5748;53.102;8.456;2023-11-19T10:36:09;4.70;;;2.07;;
11386;SDS011;5748;53.102;8.456;2023-11-19T10:38:37;4.67;;;2.23;;
11386;SDS011;5748;53.102;8.456;2023-11-19T10:41:05;5.87;;;1.93;;
11386;SDS011;5748;53.102;8.456;2023-11-19T10:43:43;5.87;;;2.30;;
11386;SDS011;5748;53.102;8.456;2023-11-19T10:46:11;4.43;;;2.20;;
11386;SDS011;5748;53.102;8.456;2023-11-19T10:48:39;6.17;;;2.10;;
11386;SDS011;5748;53.102;8.456;2023-11-19T10:51:07;4.20;;;2.10;;
11386;SDS011;5748;53.102;8.456;2023-11-19T10:53:36;5.23;;;2.10;;
11386;SDS011;5748;53.102;8.456;2023-11-19T10:56:04;5.07;;;2.00;;
11386;SDS011;5748;53.102;8.456;2023-11-19T10:58:37;4.87;;;1.90;;
11386;SDS011;5748;53.102;8.456;2023-11-19T11:01:13;3.50;;;1.80;;
11386;SDS011;5748;53.102;8.456;2023-11-19T11:03:46;3.27;;;1.70;;
11386;SDS011;5748;53.102;8.456;2023-11-19T11:06:14;6.30;;;2.07;;
11386;SDS011;5748;53.102;8.456;2023-11-19T11:08:42;4.43;;;2.00;;
11386;SDS011;5748;53.102;8.456;2023-11-19T11:11:09;4.77;;;2.00;;
11386;SDS011;5748;53.102;8.456;2023-11-19T11:13:42;5.13;;;2.50;;
11386;SDS011;5748;53.102;8.456;2023-11-19T11:16:12;7.00;;;2.30;;
11386;SDS011;5748;53.102;8.456;2023-11-19T11:18:39;5.10;;;2.40;;
11386;SDS011;5748;53.102;8.456;2023-11-19T11:21:07;4.47;;;2.07;;
11386;SDS011;5748;53.102;8.456;2023-11-19T11:23:43;5.33;;;2.43;;
11386;SDS011;5748;53.102;8.456;2023-11-19T11:26:50;5.27;;;2.30;;
11386;SDS011;5748;53.102;8.456;2023-11-19T11:29:40;5.87;;;2.03;;
11386;SDS011;5748;53.102;8.456;2023-11-19T11:32:17;5.20;;;2.23;;
11386;SDS011;5748;53.102;8.456;2023-11-19T11:35:07;4.03;;;1.70;;
11386;SDS011;5748;53.102;8.456;2023-11-19T11:37:49;5.60;;;2.13;;
11386;SDS011;5748;53.102;8.456;2023-11-19T11:40:21;7.80;;;2.40;;
11386;SDS011;5748;53.102;8.456;2023-11-19T11:42:48;4.10;;;2.00;;
11386;SDS011;5748;53.102;8.456;2023-11-19T11:45:20;6.03;;;2.00;;
11386;SDS011;5748;53.102;8.456;2023-11-19T11:48:12;6.70;;;2.30;;
11386;SDS011;5748;53.102;8.456;2023-11-19T11:50:54;5.87;;;2.30;;
11386;SDS011;5748;53.102;8.456;2023-11-19T11:53:24;4.37;;;2.17;;
11386;SDS011;5748;53.102;8.456;2023-11-19T11:55:52;3.97;;;1.80;;
11386;SDS011;5748;53.102;8.456;2023-11-19T11:58:25;6.00;;;1.93;;
11386;SDS011;5748;53.102;8.456;2023-11-19T12:01:00;5.57;;;1.83;;
11386;SDS011;5748;53.102;8.456;2023-11-19T12:03:30;4.50;;;1.90;;
11386;SDS011;5748;53.102;8.456;2023-11-19T12:05:58;5.27;;;1.80;;
11386;SDS011;5748;53.102;8.456;2023-11-19T12:08:26;4.63;;;2.07;;
11386;SDS011;5748;53.102;8.456;2023-11-19T12:10:55;3.97;;;1.90;;
11386;SDS011;5748;53.102;8.456;2023-11-19T12:13:47;4.03;;;2.00;;
11386;SDS011;5748;53.102;8.456;2023-11-19T12:16:22;5.80;;;1.80;;
11386;SDS011;5748;53.102;8.456;2023-11-19T12:18:49;2.73;;;1.70;;
11386;SDS011;5748;53.102;8.456;2023-11-19T12:21:27;4.50;;;1.80;;
11386;SDS011;5748;53.102;8.456;2023-11-19T12:23:55;4.23;;;1.77;;
11386;SDS011;5748;53.102;8.456;2023-11-19T12:26:35;4.53;;;1.60;;
11386;SDS011;5748;53.102;8.456;2023-11-19T12:29:06;3.90;;;1.80;;
11386;SDS011;5748;53.102;8.456;2023-11-19T12:31:35;5.10;;;2.17;;
11386;SDS011;5748;53.102;8.456;2023-11-19T12:34:10;4.47;;;1.90;;
11386;SDS011;5748;53.102;8.456;2023-11-19T12:36:40;5.70;;;1.90;;
11386;SDS011;5748;53.102;8.456;2023-11-19T12:39:10;4.17;;;1.70;;
11386;SDS011;5748;53.102;8.456;2023-11-19T12:41:49;2.73;;;1.43;;
11386;SDS011;5748;53.102;8.456;2023-11-19T12:44:18;2.13;;;1.37;;
11386;SDS011;5748;53.102;8.456;2023-11-19T12:46:46;2.57;;;1.30;;
11386;SDS011;5748;53.102;8.456;2023-11-19T12:50:03;1.93;;;1.07;;
11386;SDS011;5748;53.102;8.456;2023-11-19T12:53:20;2.77;;;1.10;;
11386;SDS011;5748;53.102;8.456;2023-11-19T13:00:34;0.90;;;0.80;;
11386;SDS011;5748;53.102;8.456;2023-11-19T13:12:31;0.90;;;0.70;;
11386;SDS011;5748;53.102;8.456;2023-11-19T13:15:22;0.77;;;0.60;;
11386;SDS011;5748;53.102;8.456;2023-11-19T13:17:56;1.57;;;0.60;;
11386;SDS011;5748;53.102;8.456;2023-11-19T13:20:31;1.13;;;0.73;;
11386;SDS011;5748;53.102;8.456;2023-11-19T13:23:04;1.30;;;0.70;;
11386;SDS011;5748;53.102;8.456;2023-11-19T13:26:20;1.60;;;0.70;;
11386;SDS011;5748;53.102;8.456;2023-11-19T13:29:04;1.57;;;0.80;;
11386;SDS011;5748;53.102;8.456;2023-11-19T13:31:59;1.63;;;0.93;;
11386;SDS011;5748;53.102;8.456;2023-11-19T13:34:42;0.83;;;0.60;;
11386;SDS011;5748;53.102;8.456;2023-11-19T13:37:38;0.57;;;0.50;;
11386;SDS011;5748;53.102;8.456;2023-11-19T13:40:07;1.07;;;0.77;;
11386;SDS011;5748;53.102;8.456;2023-11-19T13:42:36;1.13;;;0.70;;
11386;SDS011;5748;53.102;8.456;2023-11-19T13:45:07;1.07;;;0.60;;
11386;SDS011;5748;53.102;8.456;2023-11-19T13:47:38;3.30;;;1.27;;
11386;SDS011;5748;53.102;8.456;2023-11-19T13:50:07;2.20;;;1.10;;
11386;SDS011;5748;53.102;8.456;2023-11-19T13:52:39;2.13;;;1.20;;
11386;SDS011;5748;53.102;8.456;2023-11-19T13:55:35;2.93;;;1.30;;
11386;SDS011;5748;53.102;8.456;2023-11-19T13:58:37;3.90;;;1.63;;
11386;SDS011;5748;53.102;8.456;2023-11-19T14:01:06;3.40;;;1.43;;
11386;SDS011;5748;53.102;8.456;2023-11-19T14:03:33;2.67;;;1.40;;
11386;SDS011;5748;53.102;8.456;2023-11-19T14:06:00;4.10;;;1.70;;
11386;SDS011;5748;53.102;8.456;2023-11-19T14:11:19;4.43;;;1.70;;
11386;SDS011;5748;53.102;8.456;2023-11-19T14:14:17;3.90;;;1.83;;
11386;SDS011;5748;53.102;8.456;2023-11-19T14:20:36;4.47;;;1.70;;
11386;SDS011;5748;53.102;8.456;2023-11-19T14:23:04;4.93;;;1.90;;
11386;SDS011;5748;53.102;8.456;2023-11-19T14:25:35;2.93;;;1.60;;
11386;SDS011;5748;53.102;8.456;2023-11-19T14:28:02;2.43;;;1.33;;
11386;SDS011;5748;53.102;8.456;2023-11-19T14:30:33;3.27;;;1.60;;
11386;SDS011;5748;53.102;8.456;2023-11-19T14:37:47;3.53;;;1.50;;
11386;SDS011;5748;53.102;8.456;2023-11-19T14:40:14;3.67;;;1.27;;
11386;SDS011;5748;53.102;8.456;2023-11-19T14:42:43;2.50;;;1.27;;
11386;SDS011;5748;53.102;8.456;2023-11-19T14:45:10;1.80;;;1.03;;
11386;SDS011;5748;53.102;8.456;2023-11-19T14:47:37;1.60;;;1.07;;
11386;SDS011;5748;53.102;8.456;2023-11-19T14:50:05;3.77;;;1.30;;
11386;SDS011;5748;53.102;8.456;2023-11-19T14:52:34;2.17;;;1.20;;
11386;SDS011;5748;53.102;8.456;2023-11-19T14:55:01;3.00;;;1.23;;
11386;SDS011;5748;53.102;8.456;2023-11-19T14:57:29;2.30;;;1.40;;
11386;SDS011;5748;53.102;8.456;2023-11-19T14:59:57;2.83;;;1.17;;
11386;SDS011;5748;53.102;8.456;2023-11-19T15:02:24;2.83;;;1.40;;
11386;SDS011;5748;53.102;8.456;2023-11-19T15:04:50;3.67;;;1.53;;
11386;SDS011;5748;53.102;8.456;2023-11-19T15:10:56;2.70;;;1.27;;
11386;SDS011;5748;53.102;8.456;2023-11-19T15:13:34;3.57;;;1.70;;
11386;SDS011;5748;53.102;8.456;2023-11-19T15:22:30;3.63;;;1.60;;
11386;SDS011;5748;53.102;8.456;2023-11-19T15:24:57;3.70;;;1.50;;
11386;SDS011;5748;53.102;8.456;2023-11-19T15:27:25;3.43;;;1.47;;
11386;SDS011;5748;53.102;8.456;2023-11-19T15:30:05;2.77;;;1.23;;
11386;SDS011;5748;53.102;8.456;2023-11-19T15:32:36;5.10;;;1.70;;
11386;SDS011;5748;53.102;8.456;2023-11-19T15:35:04;4.23;;;1.50;;
11386;SDS011;5748;53.102;8.456;2023-11-19T15:38:08;4.40;;;1.60;;
11386;SDS011;5748;53.102;8.456;2023-11-19T15:40:55;2.73;;;1.17;;
11386;SDS011;5748;53.102;8.456;2023-11-19T15:43:27;2.40;;;1.50;;
11386;SDS011;5748;53.102;8.456;2023-11-19T15:45:57;2.80;;;1.47;;
11386;SDS011;5748;53.102;8.456;2023-11-19T15:48:26;3.73;;;1.87;;
11386;SDS011;5748;53.102;8.456;2023-11-19T15:50:54;3.57;;;1.80;;
11386;SDS011;5748;53.102;8.456;2023-11-19T15:53:30;4.60;;;1.90;;
11386;SDS011;5748;53.102;8.456;2023-11-19T15:56:01;2.30;;;1.37;;